Weather at Daniel K Inouye International Airport

Public forecast

Using degrees Fahrenheit for public forecast. Weather courtesy of forecast.io.

Current aviation weather report (METAR) for Daniel K Inouye International Airport

Report is more than 2 hours old.

Retrieved 2021/02/27 20:53 UTC (2 hours ago):

PHNL 272053Z 06013G18KT 9SM RA SCT022 BKN046 BKN060 23/20 A3015

Aviation forecast (TAF) for Daniel K Inouye International Airport

Retrieved 2021/02/27 18:33 UTC (4 hours ago):

TAF PHNL 271730Z 2718/2824 07011KT P6SM VCSH SCT045 SCT080 FM272000 05018G28KT P6SM VCSH SCT025 SCT045 FM280500 05013KT P6SM FEW030 SCT045 FM282000 05020G30KT P6SM FEW025 SCT045